Terminal Aerodrome Forecast
Issued by NWS Pueblo, CO

Home | Current Version | Previous Version | Text Only | Print | Product List | Glossary On
Versions: 1 2 3 4 5 6 7 8 9 10 11 12 13 14 15 16 17
000
FTUS45 KPUB 300520
TAFALS
TAF
KALS 300520Z 3006/3106 14013KT P6SM FEW120 SCT200
     FM301000 14007KT P6SM SKC
     FM301700 20011KT P6SM SCT080 BKN150
     FM302000 26010G20KT P6SM VCTS SCT080CB BKN120
     FM310200 33011KT P6SM SCT070 BKN120=

USA.gov is the U.S. government's official web portal to all federal, state and local government web resources and services.